sensor_id;sensor_type;location;lat;lon;timestamp;pressure;altitude;pressure_sealevel;temperature;humidity
38022;BME280;23832;43.216;27.946;2023-03-03T00:00:28;101209.00;;;12.92;65.57
38022;BME280;23832;43.216;27.946;2023-03-03T00:02:30;101212.38;;;13.08;64.73
38022;BME280;23832;43.216;27.946;2023-03-03T00:04:32;101211.41;;;13.01;64.55
38022;BME280;23832;43.216;27.946;2023-03-03T00:06:34;101209.53;;;13.10;63.85
38022;BME280;23832;43.216;27.946;2023-03-03T00:08:36;101212.00;;;13.12;63.90
38022;BME280;23832;43.216;27.946;2023-03-03T00:10:40;101202.84;;;12.99;64.30
38022;BME280;23832;43.216;27.946;2023-03-03T00:12:47;101209.09;;;13.06;64.58
38022;BME280;23832;43.216;27.946;2023-03-03T00:14:51;101198.69;;;13.05;63.96
38022;BME280;23832;43.216;27.946;2023-03-03T00:16:53;101204.16;;;13.03;63.65
38022;BME280;23832;43.216;27.946;2023-03-03T00:18:57;101195.03;;;13.06;63.24
38022;BME280;23832;43.216;27.946;2023-03-03T00:21:01;101195.19;;;13.04;63.77
38022;BME280;23832;43.216;27.946;2023-03-03T00:23:14;101193.59;;;13.18;62.59
38022;BME280;23832;43.216;27.946;2023-03-03T00:25:27;101196.25;;;13.18;62.89
38022;BME280;23832;43.216;27.946;2023-03-03T00:27:30;101190.19;;;13.10;62.55
38022;BME280;23832;43.216;27.946;2023-03-03T00:29:39;101190.25;;;13.01;63.22
38022;BME280;23832;43.216;27.946;2023-03-03T00:31:41;101182.66;;;12.98;63.94
38022;BME280;23832;43.216;27.946;2023-03-03T00:33:46;101177.06;;;12.93;63.31
38022;BME280;23832;43.216;27.946;2023-03-03T00:35:50;101176.22;;;12.93;63.54
38022;BME280;23832;43.216;27.946;2023-03-03T00:37:54;101178.94;;;12.85;64.97
38022;BME280;23832;43.216;27.946;2023-03-03T00:40:19;101181.47;;;13.01;63.91
38022;BME280;23832;43.216;27.946;2023-03-03T00:42:21;101172.53;;;12.79;64.91
38022;BME280;23832;43.216;27.946;2023-03-03T00:44:52;101176.00;;;13.02;64.22
38022;BME280;23832;43.216;27.946;2023-03-03T00:46:57;101170.19;;;13.07;62.56
38022;BME280;23832;43.216;27.946;2023-03-03T00:49:16;101167.28;;;13.25;61.91
38022;BME280;23832;43.216;27.946;2023-03-03T00:51:33;101172.03;;;13.06;61.99
38022;BME280;23832;43.216;27.946;2023-03-03T00:53:35;101161.50;;;12.98;62.97
38022;BME280;23832;43.216;27.946;2023-03-03T00:55:37;101163.00;;;13.24;61.92
38022;BME280;23832;43.216;27.946;2023-03-03T00:57:39;101157.78;;;13.07;62.09
38022;BME280;23832;43.216;27.946;2023-03-03T00:59:41;101149.78;;;13.16;61.81
38022;BME280;23832;43.216;27.946;2023-03-03T01:01:44;101155.91;;;13.16;61.70
38022;BME280;23832;43.216;27.946;2023-03-03T01:03:46;101151.84;;;13.05;62.11
38022;BME280;23832;43.216;27.946;2023-03-03T01:05:49;101152.19;;;13.02;61.69
38022;BME280;23832;43.216;27.946;2023-03-03T01:07:51;101152.53;;;12.99;62.38
38022;BME280;23832;43.216;27.946;2023-03-03T01:09:53;101140.19;;;13.23;61.47
38022;BME280;23832;43.216;27.946;2023-03-03T01:11:56;101139.25;;;13.07;61.62
38022;BME280;23832;43.216;27.946;2023-03-03T01:13:58;101141.25;;;13.05;61.81
38022;BME280;23832;43.216;27.946;2023-03-03T01:16:01;101138.53;;;13.22;60.83
38022;BME280;23832;43.216;27.946;2023-03-03T01:18:08;101133.88;;;13.24;61.21
38022;BME280;23832;43.216;27.946;2023-03-03T01:20:15;101132.06;;;13.16;61.01
38022;BME280;23832;43.216;27.946;2023-03-03T01:22:17;101127.56;;;13.25;60.66
38022;BME280;23832;43.216;27.946;2023-03-03T01:24:19;101129.25;;;13.18;60.27
38022;BME280;23832;43.216;27.946;2023-03-03T01:26:21;101128.59;;;13.16;61.13
38022;BME280;23832;43.216;27.946;2023-03-03T01:28:23;101134.63;;;12.87;61.79
38022;BME280;23832;43.216;27.946;2023-03-03T01:30:26;101132.72;;;12.95;62.05
38022;BME280;23832;43.216;27.946;2023-03-03T01:32:28;101130.69;;;13.05;61.40
38022;BME280;23832;43.216;27.946;2023-03-03T01:34:31;101128.25;;;12.96;62.32
38022;BME280;23832;43.216;27.946;2023-03-03T01:36:33;101117.25;;;12.84;62.43
38022;BME280;23832;43.216;27.946;2023-03-03T01:38:36;101120.78;;;12.99;62.12
38022;BME280;23832;43.216;27.946;2023-03-03T01:40:39;101127.03;;;13.06;61.83
38022;BME280;23832;43.216;27.946;2023-03-03T01:42:41;101108.31;;;13.08;61.75
38022;BME280;23832;43.216;27.946;2023-03-03T01:44:43;101109.84;;;13.02;62.05
38022;BME280;23832;43.216;27.946;2023-03-03T01:46:50;101122.97;;;12.96;61.78
38022;BME280;23832;43.216;27.946;2023-03-03T01:48:57;101113.84;;;12.98;62.18
38022;BME280;23832;43.216;27.946;2023-03-03T01:51:07;101108.13;;;13.10;61.55
38022;BME280;23832;43.216;27.946;2023-03-03T01:53:17;101112.34;;;13.19;61.07
38022;BME280;23832;43.216;27.946;2023-03-03T01:55:22;101111.88;;;13.23;60.89
38022;BME280;23832;43.216;27.946;2023-03-03T01:57:28;101116.66;;;12.74;63.12
38022;BME280;23832;43.216;27.946;2023-03-03T01:59:34;101108.34;;;12.85;62.54
38022;BME280;23832;43.216;27.946;2023-03-03T02:01:37;101112.06;;;12.91;62.22
38022;BME280;23832;43.216;27.946;2023-03-03T02:03:40;101119.75;;;12.86;61.91
38022;BME280;23832;43.216;27.946;2023-03-03T02:05:42;101119.19;;;12.90;61.67
38022;BME280;23832;43.216;27.946;2023-03-03T02:07:46;101116.84;;;12.95;62.25
38022;BME280;23832;43.216;27.946;2023-03-03T02:09:53;101108.84;;;12.81;62.05
38022;BME280;23832;43.216;27.946;2023-03-03T02:11:58;101108.56;;;12.98;61.65
38022;BME280;23832;43.216;27.946;2023-03-03T02:14:02;101110.44;;;12.90;61.28
38022;BME280;23832;43.216;27.946;2023-03-03T02:16:04;101114.91;;;12.89;61.20
38022;BME280;23832;43.216;27.946;2023-03-03T02:18:11;101114.09;;;12.89;61.94
38022;BME280;23832;43.216;27.946;2023-03-03T02:20:19;101108.59;;;12.90;61.87
38022;BME280;23832;43.216;27.946;2023-03-03T02:22:31;101104.91;;;12.99;61.09
38022;BME280;23832;43.216;27.946;2023-03-03T02:24:39;101101.69;;;12.89;61.33
38022;BME280;23832;43.216;27.946;2023-03-03T02:26:44;101093.84;;;12.96;60.87
38022;BME280;23832;43.216;27.946;2023-03-03T02:28:47;101118.50;;;12.96;61.11
38022;BME280;23832;43.216;27.946;2023-03-03T02:30:52;101107.59;;;12.91;60.83
38022;BME280;23832;43.216;27.946;2023-03-03T02:32:55;101103.25;;;12.98;61.43
38022;BME280;23832;43.216;27.946;2023-03-03T02:34:58;101113.38;;;12.95;61.56
38022;BME280;23832;43.216;27.946;2023-03-03T02:37:02;101100.81;;;13.12;60.46
38022;BME280;23832;43.216;27.946;2023-03-03T02:39:09;101101.75;;;13.04;60.87
38022;BME280;23832;43.216;27.946;2023-03-03T02:41:16;101093.28;;;12.86;60.64
38022;BME280;23832;43.216;27.946;2023-03-03T02:43:26;101087.13;;;13.08;60.15
38022;BME280;23832;43.216;27.946;2023-03-03T02:45:30;101103.47;;;13.12;60.20
38022;BME280;23832;43.216;27.946;2023-03-03T02:47:32;101106.03;;;13.05;60.04
38022;BME280;23832;43.216;27.946;2023-03-03T02:49:35;101068.16;;;12.82;60.52
38022;BME280;23832;43.216;27.946;2023-03-03T02:51:37;101114.59;;;12.84;61.30
38022;BME280;23832;43.216;27.946;2023-03-03T02:53:39;101101.06;;;13.02;60.51
38022;BME280;23832;43.216;27.946;2023-03-03T02:55:42;101108.03;;;12.80;61.51
38022;BME280;23832;43.216;27.946;2023-03-03T02:57:43;101113.78;;;12.61;62.25
38022;BME280;23832;43.216;27.946;2023-03-03T02:59:47;101108.25;;;12.70;62.66
38022;BME280;23832;43.216;27.946;2023-03-03T03:01:49;101101.03;;;12.87;62.23
38022;BME280;23832;43.216;27.946;2023-03-03T03:03:52;101098.19;;;12.66;62.70
38022;BME280;23832;43.216;27.946;2023-03-03T03:05:54;101097.25;;;12.28;64.79
38022;BME280;23832;43.216;27.946;2023-03-03T03:07:56;101099.41;;;12.24;64.78
38022;BME280;23832;43.216;27.946;2023-03-03T03:09:58;101087.63;;;12.35;64.64
38022;BME280;23832;43.216;27.946;2023-03-03T03:12:00;101090.09;;;12.36;65.40
38022;BME280;23832;43.216;27.946;2023-03-03T03:14:02;101090.66;;;12.55;63.98
38022;BME280;23832;43.216;27.946;2023-03-03T03:16:07;101093.38;;;12.38;64.79
38022;BME280;23832;43.216;27.946;2023-03-03T03:18:09;101092.16;;;12.18;65.83
38022;BME280;23832;43.216;27.946;2023-03-03T03:20:11;101085.41;;;12.15;66.18
38022;BME280;23832;43.216;27.946;2023-03-03T03:22:13;101088.66;;;12.26;66.15
38022;BME280;23832;43.216;27.946;2023-03-03T03:24:15;101084.25;;;12.18;65.91
38022;BME280;23832;43.216;27.946;2023-03-03T03:26:18;101083.25;;;12.19;66.78
38022;BME280;23832;43.216;27.946;2023-03-03T03:28:21;101085.50;;;11.91;68.31
38022;BME280;23832;43.216;27.946;2023-03-03T03:30:23;101090.94;;;11.98;68.28
38022;BME280;23832;43.216;27.946;2023-03-03T03:32:26;101090.59;;;12.01;67.91
38022;BME280;23832;43.216;27.946;2023-03-03T03:34:28;101086.94;;;12.02;68.14
38022;BME280;23832;43.216;27.946;2023-03-03T03:36:30;101083.03;;;11.89;68.63
38022;BME280;23832;43.216;27.946;2023-03-03T03:38:33;101083.38;;;11.86;69.33
38022;BME280;23832;43.216;27.946;2023-03-03T03:40:36;101079.13;;;12.16;67.08
38022;BME280;23832;43.216;27.946;2023-03-03T03:42:38;101076.78;;;12.21;66.84
38022;BME280;23832;43.216;27.946;2023-03-03T03:44:41;101077.94;;;12.19;66.96
38022;BME280;23832;43.216;27.946;2023-03-03T03:46:43;101074.00;;;12.46;65.93
38022;BME280;23832;43.216;27.946;2023-03-03T03:48:46;101076.66;;;12.15;67.46
38022;BME280;23832;43.216;27.946;2023-03-03T03:50:49;101081.06;;;11.83;67.98
38022;BME280;23832;43.216;27.946;2023-03-03T03:52:52;101085.66;;;11.98;67.81
38022;BME280;23832;43.216;27.946;2023-03-03T03:54:54;101074.09;;;12.30;66.42
38022;BME280;23832;43.216;27.946;2023-03-03T03:56:56;101077.19;;;12.41;65.72
38022;BME280;23832;43.216;27.946;2023-03-03T03:58:58;101073.72;;;12.64;64.63
38022;BME280;23832;43.216;27.946;2023-03-03T04:01:01;101074.28;;;12.59;63.81
38022;BME280;23832;43.216;27.946;2023-03-03T04:03:04;101067.09;;;12.68;63.85
38022;BME280;23832;43.216;27.946;2023-03-03T04:05:08;101029.06;;;12.46;63.47
38022;BME280;23832;43.216;27.946;2023-03-03T04:07:11;101071.41;;;12.69;64.19
38022;BME280;23832;43.216;27.946;2023-03-03T04:09:13;101064.38;;;12.99;62.63
38022;BME280;23832;43.216;27.946;2023-03-03T04:11:15;101059.28;;;12.97;62.28
38022;BME280;23832;43.216;27.946;2023-03-03T04:13:17;101062.22;;;12.79;62.91
38022;BME280;23832;43.216;27.946;2023-03-03T04:15:21;101055.56;;;13.06;61.71
38022;BME280;23832;43.216;27.946;2023-03-03T04:17:23;101037.53;;;13.02;61.85
38022;BME280;23832;43.216;27.946;2023-03-03T04:19:25;101056.38;;;13.07;61.88
38022;BME280;23832;43.216;27.946;2023-03-03T04:21:29;101059.38;;;13.27;61.26
38022;BME280;23832;43.216;27.946;2023-03-03T04:23:30;101058.09;;;13.23;60.59
38022;BME280;23832;43.216;27.946;2023-03-03T04:25:33;101055.19;;;13.10;61.15
38022;BME280;23832;43.216;27.946;2023-03-03T04:27:35;101055.09;;;13.03;61.72
38022;BME280;23832;43.216;27.946;2023-03-03T04:29:38;101053.91;;;13.05;61.67
38022;BME280;23832;43.216;27.946;2023-03-03T04:31:40;101050.03;;;12.93;62.30
38022;BME280;23832;43.216;27.946;2023-03-03T04:33:42;101053.41;;;12.87;62.68
38022;BME280;23832;43.216;27.946;2023-03-03T04:35:44;101054.16;;;12.50;64.32
38022;BME280;23832;43.216;27.946;2023-03-03T04:37:47;101051.16;;;12.76;64.15
38022;BME280;23832;43.216;27.946;2023-03-03T04:39:49;101052.72;;;12.39;65.48
38022;BME280;23832;43.216;27.946;2023-03-03T04:41:52;101049.22;;;12.70;64.74
38022;BME280;23832;43.216;27.946;2023-03-03T04:43:54;101044.53;;;12.80;63.32
38022;BME280;23832;43.216;27.946;2023-03-03T04:45:56;101053.59;;;12.86;63.51
38022;BME280;23832;43.216;27.946;2023-03-03T04:47:58;101050.94;;;12.86;63.06
38022;BME280;23832;43.216;27.946;2023-03-03T04:50:00;101058.97;;;12.92;62.88
38022;BME280;23832;43.216;27.946;2023-03-03T04:52:02;101056.75;;;13.04;62.60
38022;BME280;23832;43.216;27.946;2023-03-03T04:54:05;101056.50;;;12.45;65.59
38022;BME280;23832;43.216;27.946;2023-03-03T04:56:07;101051.91;;;12.85;64.53
38022;BME280;23832;43.216;27.946;2023-03-03T04:58:09;101056.84;;;13.11;64.03
38022;BME280;23832;43.216;27.946;2023-03-03T05:00:12;101042.88;;;13.17;64.46
38022;BME280;23832;43.216;27.946;2023-03-03T05:02:15;101061.00;;;13.28;69.07
38022;BME280;23832;43.216;27.946;2023-03-03T05:04:17;101062.38;;;13.39;67.05
38022;BME280;23832;43.216;27.946;2023-03-03T05:06:19;101067.78;;;13.07;67.96
38022;BME280;23832;43.216;27.946;2023-03-03T05:08:21;101067.63;;;12.86;68.21
38022;BME280;23832;43.216;27.946;2023-03-03T05:10:25;101058.78;;;12.94;67.28
38022;BME280;23832;43.216;27.946;2023-03-03T05:12:27;101057.25;;;12.99;65.97
38022;BME280;23832;43.216;27.946;2023-03-03T05:14:29;101058.44;;;12.97;65.24
38022;BME280;23832;43.216;27.946;2023-03-03T05:16:31;101065.44;;;13.13;64.45
38022;BME280;23832;43.216;27.946;2023-03-03T05:18:34;101062.75;;;12.98;64.07
38022;BME280;23832;43.216;27.946;2023-03-03T05:20:38;101063.94;;;12.95;63.88
38022;BME280;23832;43.216;27.946;2023-03-03T05:22:40;101060.97;;;13.13;63.65
38022;BME280;23832;43.216;27.946;2023-03-03T05:24:42;101064.06;;;13.17;62.79
38022;BME280;23832;43.216;27.946;2023-03-03T05:26:49;101048.72;;;13.12;62.21
38022;BME280;23832;43.216;27.946;2023-03-03T05:28:51;101068.03;;;13.21;61.25
38022;BME280;23832;43.216;27.946;2023-03-03T05:30:54;101067.69;;;13.24;61.00
38022;BME280;23832;43.216;27.946;2023-03-03T05:32:56;101080.13;;;13.15;60.64
38022;BME280;23832;43.216;27.946;2023-03-03T05:34:59;101078.69;;;13.13;61.00
38022;BME280;23832;43.216;27.946;2023-03-03T05:37:01;101070.38;;;13.16;60.10
38022;BME280;23832;43.216;27.946;2023-03-03T05:39:06;101068.72;;;13.15;60.11
38022;BME280;23832;43.216;27.946;2023-03-03T05:41:08;101074.16;;;12.98;61.11
38022;BME280;23832;43.216;27.946;2023-03-03T05:43:12;101072.25;;;13.30;63.39
38022;BME280;23832;43.216;27.946;2023-03-03T05:45:14;101068.69;;;13.38;64.03
38022;BME280;23832;43.216;27.946;2023-03-03T05:47:16;101070.56;;;13.52;62.38
38022;BME280;23832;43.216;27.946;2023-03-03T05:49:18;101078.41;;;13.60;61.11
38022;BME280;23832;43.216;27.946;2023-03-03T05:51:20;101075.69;;;13.68;61.09
38022;BME280;23832;43.216;27.946;2023-03-03T05:53:21;101082.53;;;13.77;60.10
38022;BME280;23832;43.216;27.946;2023-03-03T05:55:24;101078.88;;;13.49;61.27
38022;BME280;23832;43.216;27.946;2023-03-03T05:57:25;101073.53;;;13.34;61.58
38022;BME280;23832;43.216;27.946;2023-03-03T05:59:29;101076.75;;;13.44;60.38
38022;BME280;23832;43.216;27.946;2023-03-03T06:01:32;101085.81;;;13.64;60.00
38022;BME280;23832;43.216;27.946;2023-03-03T06:03:34;101079.22;;;13.46;59.79
38022;BME280;23832;43.216;27.946;2023-03-03T06:05:36;101080.50;;;13.64;59.57
38022;BME280;23832;43.216;27.946;2023-03-03T06:07:38;101078.53;;;13.67;58.83
38022;BME280;23832;43.216;27.946;2023-03-03T06:09:40;101076.97;;;13.87;58.94
38022;BME280;23832;43.216;27.946;2023-03-03T06:11:42;101081.78;;;13.83;59.87
38022;BME280;23832;43.216;27.946;2023-03-03T06:13:44;101077.13;;;13.56;60.86
38022;BME280;23832;43.216;27.946;2023-03-03T06:15:49;101081.06;;;13.75;59.66
38022;BME280;23832;43.216;27.946;2023-03-03T06:17:51;101069.75;;;13.66;59.04
38022;BME280;23832;43.216;27.946;2023-03-03T06:19:53;101074.28;;;13.43;59.33
38022;BME280;23832;43.216;27.946;2023-03-03T06:21:55;101074.94;;;13.59;58.30
38022;BME280;23832;43.216;27.946;2023-03-03T06:23:57;101080.16;;;13.68;57.96
38022;BME280;23832;43.216;27.946;2023-03-03T06:25:59;101073.66;;;13.55;57.89
38022;BME280;23832;43.216;27.946;2023-03-03T06:28:01;101076.03;;;13.65;57.60
38022;BME280;23832;43.216;27.946;2023-03-03T06:30:04;101074.47;;;13.71;56.95
38022;BME280;23832;43.216;27.946;2023-03-03T06:32:08;101078.06;;;13.78;56.71
38022;BME280;23832;43.216;27.946;2023-03-03T06:34:10;101077.88;;;13.94;56.54
38022;BME280;23832;43.216;27.946;2023-03-03T06:36:12;101081.81;;;13.69;57.80
38022;BME280;23832;43.216;27.946;2023-03-03T06:38:14;101082.63;;;13.69;58.18
38022;BME280;23832;43.216;27.946;2023-03-03T06:40:16;101085.63;;;13.81;57.66
38022;BME280;23832;43.216;27.946;2023-03-03T06:42:19;101084.81;;;13.80;57.17
38022;BME280;23832;43.216;27.946;2023-03-03T06:44:21;101080.34;;;13.81;57.29
38022;BME280;23832;43.216;27.946;2023-03-03T06:46:23;101088.19;;;13.74;57.19
38022;BME280;23832;43.216;27.946;2023-03-03T06:48:28;101086.25;;;13.83;56.79
38022;BME280;23832;43.216;27.946;2023-03-03T06:50:30;101083.97;;;13.65;57.26
38022;BME280;23832;43.216;27.946;2023-03-03T06:52:32;101084.28;;;13.85;56.34
38022;BME280;23832;43.216;27.946;2023-03-03T06:54:34;101085.09;;;13.71;56.34
38022;BME280;23832;43.216;27.946;2023-03-03T06:56:37;101078.94;;;13.55;57.10
38022;BME280;23832;43.216;27.946;2023-03-03T06:58:39;101083.53;;;13.76;57.48
38022;BME280;23832;43.216;27.946;2023-03-03T07:00:41;101082.06;;;14.03;56.82
38022;BME280;23832;43.216;27.946;2023-03-03T07:02:46;101083.88;;;13.73;58.29
38022;BME280;23832;43.216;27.946;2023-03-03T07:04:50;101077.41;;;13.76;58.15
38022;BME280;23832;43.216;27.946;2023-03-03T07:06:54;101082.25;;;13.87;57.34
38022;BME280;23832;43.216;27.946;2023-03-03T07:08:56;101081.97;;;13.82;56.98
38022;BME280;23832;43.216;27.946;2023-03-03T07:11:04;101079.72;;;13.94;56.23
38022;BME280;23832;43.216;27.946;2023-03-03T07:13:18;101074.22;;;13.95;55.40
38022;BME280;23832;43.216;27.946;2023-03-03T07:15:27;101074.09;;;13.74;56.28
38022;BME280;23832;43.216;27.946;2023-03-03T07:17:30;101073.22;;;13.67;56.19
38022;BME280;23832;43.216;27.946;2023-03-03T07:19:36;101077.34;;;13.84;55.74
38022;BME280;23832;43.216;27.946;2023-03-03T07:21:42;101071.75;;;13.79;55.73
38022;BME280;23832;43.216;27.946;2023-03-03T07:23:47;101068.63;;;13.90;54.79
38022;BME280;23832;43.216;27.946;2023-03-03T07:25:50;101070.75;;;13.80;55.33
38022;BME280;23832;43.216;27.946;2023-03-03T07:27:55;101062.97;;;13.78;54.91
38022;BME280;23832;43.216;27.946;2023-03-03T07:30:16;101067.72;;;14.12;53.84
38022;BME280;23832;43.216;27.946;2023-03-03T07:32:25;101067.34;;;14.01;55.77
38022;BME280;23832;43.216;27.946;2023-03-03T07:34:35;101066.06;;;14.11;56.83
38022;BME280;23832;43.216;27.946;2023-03-03T07:36:39;101069.91;;;13.94;56.62
38022;BME280;23832;43.216;27.946;2023-03-03T07:38:50;101060.03;;;13.88;55.69
38022;BME280;23832;43.216;27.946;2023-03-03T07:40:55;101062.22;;;13.99;55.53
38022;BME280;23832;43.216;27.946;2023-03-03T07:42:57;101062.94;;;14.23;54.56
38022;BME280;23832;43.216;27.946;2023-03-03T07:45:00;101059.66;;;14.06;54.68
38022;BME280;23832;43.216;27.946;2023-03-03T07:47:15;101052.69;;;14.19;54.12
38022;BME280;23832;43.216;27.946;2023-03-03T07:49:23;101049.69;;;14.44;54.07
38022;BME280;23832;43.216;27.946;2023-03-03T07:51:37;101057.75;;;14.36;58.38
38022;BME280;23832;43.216;27.946;2023-03-03T07:53:43;101056.31;;;14.48;57.39
38022;BME280;23832;43.216;27.946;2023-03-03T07:55:45;101049.38;;;14.32;57.14
38022;BME280;23832;43.216;27.946;2023-03-03T07:57:49;101051.25;;;14.53;55.87
38022;BME280;23832;43.216;27.946;2023-03-03T07:59:54;101048.66;;;14.60;55.04
38022;BME280;23832;43.216;27.946;2023-03-03T08:01:59;101040.50;;;14.61;54.23
38022;BME280;23832;43.216;27.946;2023-03-03T08:04:02;101045.59;;;14.41;54.12
38022;BME280;23832;43.216;27.946;2023-03-03T08:06:35;101044.56;;;14.57;53.16
38022;BME280;23832;43.216;27.946;2023-03-03T08:08:38;101045.59;;;14.41;55.55
38022;BME280;23832;43.216;27.946;2023-03-03T08:10:46;101041.41;;;14.68;54.99
38022;BME280;23832;43.216;27.946;2023-03-03T08:12:48;101037.66;;;14.63;54.85
38022;BME280;23832;43.216;27.946;2023-03-03T08:14:51;101039.50;;;14.62;54.57
38022;BME280;23832;43.216;27.946;2023-03-03T08:16:56;101040.06;;;14.79;54.06
38022;BME280;23832;43.216;27.946;2023-03-03T08:19:01;101041.34;;;14.83;53.54
38022;BME280;23832;43.216;27.946;2023-03-03T08:21:07;101035.50;;;14.94;52.91
38022;BME280;23832;43.216;27.946;2023-03-03T08:23:10;101040.34;;;15.12;52.85
38022;BME280;23832;43.216;27.946;2023-03-03T08:25:12;101039.00;;;15.23;52.31
38022;BME280;23832;43.216;27.946;2023-03-03T08:27:15;101034.94;;;15.27;52.14
38022;BME280;23832;43.216;27.946;2023-03-03T08:29:18;101035.47;;;15.16;52.82
38022;BME280;23832;43.216;27.946;2023-03-03T08:31:20;101036.16;;;15.24;52.62
38022;BME280;23832;43.216;27.946;2023-03-03T08:33:22;101028.19;;;15.24;52.25
38022;BME280;23832;43.216;27.946;2023-03-03T08:35:24;101035.31;;;15.52;52.52
38022;BME280;23832;43.216;27.946;2023-03-03T08:37:26;101033.59;;;15.66;53.23
38022;BME280;23832;43.216;27.946;2023-03-03T08:39:28;101030.16;;;15.78;53.23
38022;BME280;23832;43.216;27.946;2023-03-03T08:41:30;101036.03;;;15.67;53.40
38022;BME280;23832;43.216;27.946;2023-03-03T08:43:33;101034.19;;;16.15;52.29
38022;BME280;23832;43.216;27.946;2023-03-03T08:45:35;101035.41;;;16.06;52.28
38022;BME280;23832;43.216;27.946;2023-03-03T08:47:38;101057.56;;;16.20;51.32
38022;BME280;23832;43.216;27.946;2023-03-03T08:49:40;101046.91;;;16.20;51.23
38022;BME280;23832;43.216;27.946;2023-03-03T08:51:42;101041.19;;;16.23;50.77
38022;BME280;23832;43.216;27.946;2023-03-03T08:53:43;101049.66;;;15.92;50.97
38022;BME280;23832;43.216;27.946;2023-03-03T08:55:46;101056.38;;;15.88;51.77
38022;BME280;23832;43.216;27.946;2023-03-03T08:57:48;101057.59;;;16.33;50.58
38022;BME280;23832;43.216;27.946;2023-03-03T08:59:52;101054.34;;;16.38;49.86
38022;BME280;23832;43.216;27.946;2023-03-03T09:01:54;101024.84;;;16.39;49.44
38022;BME280;23832;43.216;27.946;2023-03-03T09:03:56;101048.81;;;16.53;49.41
38022;BME280;23832;43.216;27.946;2023-03-03T09:05:58;101050.28;;;16.62;49.26
38022;BME280;23832;43.216;27.946;2023-03-03T09:08:00;101045.44;;;16.72;48.80
38022;BME280;23832;43.216;27.946;2023-03-03T09:10:02;101047.69;;;16.82;48.74
38022;BME280;23832;43.216;27.946;2023-03-03T09:12:13;101040.94;;;17.19;47.82
38022;BME280;23832;43.216;27.946;2023-03-03T09:14:17;101038.06;;;17.00;49.59
38022;BME280;23832;43.216;27.946;2023-03-03T09:16:22;101035.38;;;17.14;48.55
38022;BME280;23832;43.216;27.946;2023-03-03T09:18:30;101032.94;;;16.99;47.96
38022;BME280;23832;43.216;27.946;2023-03-03T09:20:35;101033.78;;;16.99;48.50
38022;BME280;23832;43.216;27.946;2023-03-03T09:22:37;101032.72;;;17.27;48.13
38022;BME280;23832;43.216;27.946;2023-03-03T09:24:41;101035.59;;;17.19;47.29
38022;BME280;23832;43.216;27.946;2023-03-03T09:26:45;101029.66;;;17.10;47.43
38022;BME280;23832;43.216;27.946;2023-03-03T09:28:47;100987.47;;;16.94;47.09
38022;BME280;23832;43.216;27.946;2023-03-03T09:30:51;101021.47;;;17.18;47.28
38022;BME280;23832;43.216;27.946;2023-03-03T09:32:55;101019.22;;;17.09;47.98
38022;BME280;23832;43.216;27.946;2023-03-03T09:34:57;101013.28;;;17.00;48.47
38022;BME280;23832;43.216;27.946;2023-03-03T09:37:00;101011.00;;;16.97;47.71
38022;BME280;23832;43.216;27.946;2023-03-03T09:39:14;101013.88;;;16.95;46.88
38022;BME280;23832;43.216;27.946;2023-03-03T09:41:40;101016.97;;;16.72;46.92
38022;BME280;23832;43.216;27.946;2023-03-03T09:43:59;101020.00;;;16.63;47.26
38022;BME280;23832;43.216;27.946;2023-03-03T09:46:09;101014.09;;;16.74;47.67
38022;BME280;23832;43.216;27.946;2023-03-03T09:48:38;101011.63;;;16.92;46.71
38022;BME280;23832;43.216;27.946;2023-03-03T09:50:48;100999.97;;;17.00;46.25
38022;BME280;23832;43.216;27.946;2023-03-03T09:53:06;101010.41;;;17.01;46.28
38022;BME280;23832;43.216;27.946;2023-03-03T09:55:27;100999.97;;;16.93;46.64
38022;BME280;23832;43.216;27.946;2023-03-03T09:57:48;100997.50;;;16.79;46.66
38022;BME280;23832;43.216;27.946;2023-03-03T10:00:06;100989.50;;;17.12;46.86
38022;BME280;23832;43.216;27.946;2023-03-03T10:02:35;100982.56;;;16.84;47.42
38022;BME280;23832;43.216;27.946;2023-03-03T10:04:50;100986.22;;;17.10;47.72
38022;BME280;23832;43.216;27.946;2023-03-03T10:07:04;100976.94;;;17.32;47.50
38022;BME280;23832;43.216;27.946;2023-03-03T10:09:40;100975.53;;;17.23;46.79
38022;BME280;23832;43.216;27.946;2023-03-03T10:11:49;100978.19;;;17.36;46.91
38022;BME280;23832;43.216;27.946;2023-03-03T10:14:10;100971.38;;;17.47;46.49
38022;BME280;23832;43.216;27.946;2023-03-03T10:18:47;100963.41;;;17.34;46.35
38022;BME280;23832;43.216;27.946;2023-03-03T10:21:01;100957.63;;;17.50;46.34
38022;BME280;23832;43.216;27.946;2023-03-03T10:23:14;100960.06;;;17.51;46.00
38022;BME280;23832;43.216;27.946;2023-03-03T10:25:28;100956.44;;;17.33;45.46
38022;BME280;23832;43.216;27.946;2023-03-03T10:27:44;100953.16;;;17.37;45.60
38022;BME280;23832;43.216;27.946;2023-03-03T10:29:58;100950.50;;;17.37;45.43
38022;BME280;23832;43.216;27.946;2023-03-03T10:32:24;100946.88;;;17.18;45.88
38022;BME280;23832;43.216;27.946;2023-03-03T10:34:47;100941.75;;;17.10;46.22
38022;BME280;23832;43.216;27.946;2023-03-03T10:36:54;100945.78;;;17.39;46.47
38022;BME280;23832;43.216;27.946;2023-03-03T10:39:17;100947.47;;;17.20;46.12
38022;BME280;23832;43.216;27.946;2023-03-03T10:41:35;100942.16;;;17.14;46.33
38022;BME280;23832;43.216;27.946;2023-03-03T10:43:51;100945.00;;;17.19;46.42
38022;BME280;23832;43.216;27.946;2023-03-03T10:46:17;100948.28;;;17.27;45.68
38022;BME280;23832;43.216;27.946;2023-03-03T10:48:37;100946.41;;;17.35;45.95